Jasná obloha bez mraků
Jasná obloha bez mraků
Jasná obloha bez mraků
Jasná obloha bez mraků
Jasná obloha bez mraků
Jasná obloha bez mraků
Jasná obloha bez mraků
(°C)
-4°
-5°
-6°
-7°
-8°
-8°
-8°
(°C)
-9°
-9°
-10°
-11°
-12°
-12°
-11°
VJV
JV
JV
JV
JJV
JJV
JJV
(km/h)
7-7
2-9
2-10
2-10
2-9
2-8
2-8
(mm)
0
0
0
0
0
0
0
(%)
0
0
0
0
0
0
0

Sluneční výška

/ -48.9°
sun-icon
UV 3
07:29
17:27
Ubývající měsíc (210°)
20:14
08:57

METAR pro Innsbruck (LOWI)

Čas Podmínky Teplota/
Rosný bod
Vítr Viditelnost Počasí Oblaky Tlak Změna Nezpracované
VFR -4°C / -8°C 80º 4kt >10km - Clear 1035 - LOWI 080120Z AUTO 08004KT 9999 NCD M04/M08 Q1035
VFR -4°C / -8°C 100º 3kt >10km - Clear 1035 - LOWI 080050Z AUTO 10003KT 9999 NCD M04/M08 Q1035
VFR -3°C / -8°C 130º 4kt >10km - Clear 1035 - LOWI 080020Z AUTO 13004KT 9999 NCD M03/M08 Q1035
VFR -3°C / -8°C 100º variable 070º to 130º 3kt >10km - Clear 1035 - LOWI 072350Z AUTO 10003KT 070V130 9999 NCD M03/M08 Q1035
VFR -3°C / -7°C 110º 3kt >10km - Clear 1035 - LOWI 072320Z AUTO 11003KT 9999 NCD M03/M07 Q1035
VFR -3°C / -7°C 90º 4kt >10km - Clear 1036 - LOWI 072250Z AUTO 09004KT 9999 NCD M03/M07 Q1036
VFR -2°C / -6°C 70º 4kt >10km - Clouds and Visibility OK 1035 No Significant change LOWI 072150Z 07004KT CAVOK M02/M06 Q1035 NOSIG
VFR -2°C / -6°C 90º 4kt >10km - Clouds and Visibility OK 1035 No Significant change LOWI 072120Z 09004KT CAVOK M02/M06 Q1035 NOSIG
VFR -1°C / -6°C 80º variable 050º to 110º 6kt >10km - Clouds and Visibility OK 1035 No Significant change LOWI 072050Z 08006KT 050V110 CAVOK M01/M06 Q1035 NOSIG
VFR -1°C / -5°C 130º 4kt >10km - Clouds and Visibility OK 1035 No Significant change LOWI 072020Z 13004KT CAVOK M01/M05 Q1035 NOSIG
VFR -2°C / -5°C variable 1kt >10km - Clouds and Visibility OK 1035 No Significant change LOWI 071950Z VRB01KT CAVOK M02/M05 Q1035 NOSIG
VFR -1°C / -5°C 110º variable 080º to 150º 3kt >10km - Clouds and Visibility OK 1035 No Significant change LOWI 071920Z 11003KT 080V150 CAVOK M01/M05 Q1035 NOSIG
VFR -1°C / -6°C 120º 2kt >10km - Clouds and Visibility OK 1035 No Significant change LOWI 071850Z 12002KT CAVOK M01/M06 Q1035 NOSIG
VFR -1°C / -6°C variable 2kt >10km - Clouds and Visibility OK 1035 No Significant change LOWI 071820Z VRB02KT CAVOK M01/M06 Q1035 NOSIG
VFR 1°C / -7°C variable 2kt >10km - Clouds and Visibility OK 1034 No Significant change LOWI 071650Z VRB02KT CAVOK 01/M07 Q1034 NOSIG
VFR 2°C / -8°C 90º variable 050º to 120º 3kt >10km - Clouds and Visibility OK 1033 No Significant change LOWI 071620Z 09003KT 050V120 CAVOK 02/M08 Q1033 NOSIG
VFR 2°C / -8°C 80º 8kt >10km - Clouds and Visibility OK 1033 No Significant change LOWI 071550Z 08008KT CAVOK 02/M08 Q1033 NOSIG
VFR 4°C / -7°C 90º variable 060º to 120º 7kt >10km - Clouds and Visibility OK 1033 No Significant change LOWI 071520Z 09007KT 060V120 CAVOK 04/M07 Q1033 NOSIG
VFR 4°C / -7°C 120º variable 080º to 150º 4kt >10km - Clouds and Visibility OK 1032 No Significant change LOWI 071450Z 12004KT 080V150 CAVOK 04/M07 Q1032 NOSIG
VFR 5°C / -6°C variable 4kt >10km - Clouds and Visibility OK 1032 No Significant change LOWI 071420Z VRB04KT CAVOK 05/M06 Q1032 NOSIG
VFR 4°C / -7°C 140º variable 070º to 200º 4kt >10km - Clouds and Visibility OK 1033 No Significant change LOWI 071350Z 14004KT 070V200 CAVOK 04/M07 Q1033 NOSIG
VFR 4°C / -7°C 90º variable 020º to 170º 3kt >10km - Clouds and Visibility OK 1033 No Significant change LOWI 071320Z 09003KT 020V170 CAVOK 04/M07 Q1033 NOSIG
VFR 3°C / -5°C 140º variable 120º to 190º 5kt >10km - Clouds and Visibility OK 1033 No Significant change LOWI 071250Z 14005KT 120V190 CAVOK 03/M05 Q1033 NOSIG
VFR 3°C / -6°C 120º variable 070º to 220º 5kt >10km - Clouds and Visibility OK 1034 No Significant change LOWI 071220Z 12005KT 070V220 CAVOK 03/M06 Q1034 NOSIG

VFR

-4°C / -8°C

[Víc]
Vítr 80º 4kt
Viditelnost >10km
Počasí -
Oblaky Clear
Tlak 1035
Změna -
Nezpracované LOWI 080120Z AUTO 08004KT 9999 NCD M04/M08 Q1035

VFR

-4°C / -8°C

[Víc]
Vítr 100º 3kt
Viditelnost >10km
Počasí -
Oblaky Clear
Tlak 1035
Změna -
Nezpracované LOWI 080050Z AUTO 10003KT 9999 NCD M04/M08 Q1035

VFR

-3°C / -8°C

[Víc]
Vítr 130º 4kt
Viditelnost >10km
Počasí -
Oblaky Clear
Tlak 1035
Změna -
Nezpracované LOWI 080020Z AUTO 13004KT 9999 NCD M03/M08 Q1035

VFR

-3°C / -8°C

[Víc]
Vítr 100º variable 070º to 130º 3kt
Viditelnost >10km
Počasí -
Oblaky Clear
Tlak 1035
Změna -
Nezpracované LOWI 072350Z AUTO 10003KT 070V130 9999 NCD M03/M08 Q1035

VFR

-3°C / -7°C

[Víc]
Vítr 110º 3kt
Viditelnost >10km
Počasí -
Oblaky Clear
Tlak 1035
Změna -
Nezpracované LOWI 072320Z AUTO 11003KT 9999 NCD M03/M07 Q1035

VFR

-3°C / -7°C

[Víc]
Vítr 90º 4kt
Viditelnost >10km
Počasí -
Oblaky Clear
Tlak 1036
Změna -
Nezpracované LOWI 072250Z AUTO 09004KT 9999 NCD M03/M07 Q1036

VFR

-2°C / -6°C

[Víc]
Vítr 70º 4kt
Viditelnost >10km
Počasí -
Oblaky Clouds and Visibility OK
Tlak 1035
Změna No Significant change
Nezpracované LOWI 072150Z 07004KT CAVOK M02/M06 Q1035 NOSIG

VFR

-2°C / -6°C

[Víc]
Vítr 90º 4kt
Viditelnost >10km
Počasí -
Oblaky Clouds and Visibility OK
Tlak 1035
Změna No Significant change
Nezpracované LOWI 072120Z 09004KT CAVOK M02/M06 Q1035 NOSIG

VFR

-1°C / -6°C

[Víc]
Vítr 80º variable 050º to 110º 6kt
Viditelnost >10km
Počasí -
Oblaky Clouds and Visibility OK
Tlak 1035
Změna No Significant change
Nezpracované LOWI 072050Z 08006KT 050V110 CAVOK M01/M06 Q1035 NOSIG

VFR

-1°C / -5°C

[Víc]
Vítr 130º 4kt
Viditelnost >10km
Počasí -
Oblaky Clouds and Visibility OK
Tlak 1035
Změna No Significant change
Nezpracované LOWI 072020Z 13004KT CAVOK M01/M05 Q1035 NOSIG

VFR

-2°C / -5°C

[Víc]
Vítr variable 1kt
Viditelnost >10km
Počasí -
Oblaky Clouds and Visibility OK
Tlak 1035
Změna No Significant change
Nezpracované LOWI 071950Z VRB01KT CAVOK M02/M05 Q1035 NOSIG

VFR

-1°C / -5°C

[Víc]
Vítr 110º variable 080º to 150º 3kt
Viditelnost >10km
Počasí -
Oblaky Clouds and Visibility OK
Tlak 1035
Změna No Significant change
Nezpracované LOWI 071920Z 11003KT 080V150 CAVOK M01/M05 Q1035 NOSIG

VFR

-1°C / -6°C

[Víc]
Vítr 120º 2kt
Viditelnost >10km
Počasí -
Oblaky Clouds and Visibility OK
Tlak 1035
Změna No Significant change
Nezpracované LOWI 071850Z 12002KT CAVOK M01/M06 Q1035 NOSIG

VFR

-1°C / -6°C

[Víc]
Vítr variable 2kt
Viditelnost >10km
Počasí -
Oblaky Clouds and Visibility OK
Tlak 1035
Změna No Significant change
Nezpracované LOWI 071820Z VRB02KT CAVOK M01/M06 Q1035 NOSIG

VFR

1°C / -7°C

[Víc]
Vítr variable 2kt
Viditelnost >10km
Počasí -
Oblaky Clouds and Visibility OK
Tlak 1034
Změna No Significant change
Nezpracované LOWI 071650Z VRB02KT CAVOK 01/M07 Q1034 NOSIG

VFR

2°C / -8°C

[Víc]
Vítr 90º variable 050º to 120º 3kt
Viditelnost >10km
Počasí -
Oblaky Clouds and Visibility OK
Tlak 1033
Změna No Significant change
Nezpracované LOWI 071620Z 09003KT 050V120 CAVOK 02/M08 Q1033 NOSIG

VFR

2°C / -8°C

[Víc]
Vítr 80º 8kt
Viditelnost >10km
Počasí -
Oblaky Clouds and Visibility OK
Tlak 1033
Změna No Significant change
Nezpracované LOWI 071550Z 08008KT CAVOK 02/M08 Q1033 NOSIG

VFR

4°C / -7°C

[Víc]
Vítr 90º variable 060º to 120º 7kt
Viditelnost >10km
Počasí -
Oblaky Clouds and Visibility OK
Tlak 1033
Změna No Significant change
Nezpracované LOWI 071520Z 09007KT 060V120 CAVOK 04/M07 Q1033 NOSIG

VFR

4°C / -7°C

[Víc]
Vítr 120º variable 080º to 150º 4kt
Viditelnost >10km
Počasí -
Oblaky Clouds and Visibility OK
Tlak 1032
Změna No Significant change
Nezpracované LOWI 071450Z 12004KT 080V150 CAVOK 04/M07 Q1032 NOSIG

VFR

5°C / -6°C

[Víc]
Vítr variable 4kt
Viditelnost >10km
Počasí -
Oblaky Clouds and Visibility OK
Tlak 1032
Změna No Significant change
Nezpracované LOWI 071420Z VRB04KT CAVOK 05/M06 Q1032 NOSIG

VFR

4°C / -7°C

[Víc]
Vítr 140º variable 070º to 200º 4kt
Viditelnost >10km
Počasí -
Oblaky Clouds and Visibility OK
Tlak 1033
Změna No Significant change
Nezpracované LOWI 071350Z 14004KT 070V200 CAVOK 04/M07 Q1033 NOSIG

VFR

4°C / -7°C

[Víc]
Vítr 90º variable 020º to 170º 3kt
Viditelnost >10km
Počasí -
Oblaky Clouds and Visibility OK
Tlak 1033
Změna No Significant change
Nezpracované LOWI 071320Z 09003KT 020V170 CAVOK 04/M07 Q1033 NOSIG

VFR

3°C / -5°C

[Víc]
Vítr 140º variable 120º to 190º 5kt
Viditelnost >10km
Počasí -
Oblaky Clouds and Visibility OK
Tlak 1033
Změna No Significant change
Nezpracované LOWI 071250Z 14005KT 120V190 CAVOK 03/M05 Q1033 NOSIG

VFR

3°C / -6°C

[Víc]
Vítr 120º variable 070º to 220º 5kt
Viditelnost >10km
Počasí -
Oblaky Clouds and Visibility OK
Tlak 1034
Změna No Significant change
Nezpracované LOWI 071220Z 12005KT 070V220 CAVOK 03/M06 Q1034 NOSIG

TAF pro Innsbruck (LOWI)

From till


Maximum Temperature 3ºC on . Minimum Temperature -8ºC on .
From till Wind 90º 6kt. Visibility 10km or more. Nil Significant Cloud.

Nezpracované: TAF LOWI 072315Z 0800/0824 09006KT CAVOK TX03/0814Z TNM08/0806Z

Radar a krátkodobá předpověď srážek pro Innsbruck

Mrholení
Slabé
Střední
Silné
Velmi silné
Kroupy

Značka lokality je umístněna na Innsbruck. Tato animace ukazuje srážky zaznamenané radarem za poslední hodinu a také 2h předpověď. Mrholení nebo slabé sněžení může být pro radar neviditelné. Intenzita srážek je barevně označena od světle modré po oranžovou.
Copyright 2023 Deutscher Wetterdienst / meteoblue.

Aktuální snímky ze satelitu a srážky pro Innsbruck, Rakousko

Značka polohy je umístěna na Innsbruck. [Víc]

Satelitní snímek v reálném čase kombinuje viditelné světlo během dne s infračerveným zářením během noci. V noci není obraz tmavý, protože infračervené záření dokáže detekovat teplotní rozdíly. Nízká oblačnost a mlha se bohužel těžko odlišují od pozemních teplot, a proto mohou být během noci téměř neviditelné. Satelitní snímky z Meteosatu pro Evropu jsou aktualizovány v reálném čase každých 5 minut. Snímky z GOES-16/GOES-17 (Severní a Jižní Amerika) a Himawari (Asie) jsou aktualizovány) každých 10 minut.

Srážky se odhadují z radarů a družic. Odhady srážek ze satelitů jsou v noci méně přesné než ve dne. Oranžové křížky označují místa, kde byl zaznamenán blesk (za Evropa).

Copyright 2023 EUMETSAT / meteoblue. Údaje o blescích poskytuje nowcast.

Zpět nahoru